Weather at Roche Harbor Seaplane Base

Public forecast

Using degrees Fahrenheit for public forecast. Weather courtesy of forecast.io.

Closest aviation weather report (METAR) to Roche Harbor Seaplane Base

Closest report is Friday Harbor Airport, 7.5 nm (13.9 km) SE.

2024/05/20 23:53 (retrieved 28 minutes ago)

KFHR 202353Z AUTO 22009KT 10SM CLR 17/06 A3021 RMK AO2 SLP231 T01720061 10183 20144 58017

Closest aviation forecast (TAF) to Roche Harbor Seaplane Base

Closest forecast is Victoria Harbour Seaplane Base, 14.0 nm (26.0 km) SW.

2024/05/20 21:00 (retrieved 3 hours ago)

TAF CYWH 202040Z 2021/2104 18008KT P6SM FEW030 BKN230 FM210000 22015KT P6SM BKN120 RMK NXT FCST BY 211400Z